sensor_id;sensor_type;location;lat;lon;timestamp;P1;durP1;ratioP1;P2;durP2;ratioP2
18647;SDS011;9453;50.294;18.644;2023-08-30T04:04:13;27.83;;;8.38;;
18647;SDS011;9453;50.294;18.644;2023-08-30T04:06:40;29.48;;;7.60;;
18647;SDS011;9453;50.294;18.644;2023-08-30T04:09:07;36.88;;;7.43;;
18647;SDS011;9453;50.294;18.644;2023-08-30T04:11:35;22.95;;;6.75;;
18647;SDS011;9453;50.294;18.644;2023-08-30T04:14:02;28.42;;;7.40;;
18647;SDS011;9453;50.294;18.644;2023-08-30T04:16:29;18.83;;;6.18;;
18647;SDS011;9453;50.294;18.644;2023-08-30T04:18:56;25.02;;;6.00;;
18647;SDS011;9453;50.294;18.644;2023-08-30T04:21:25;8.90;;;4.63;;
18647;SDS011;9453;50.294;18.644;2023-08-30T04:23:52;13.18;;;4.88;;
18647;SDS011;9453;50.294;18.644;2023-08-30T04:26:19;11.35;;;4.10;;
18647;SDS011;9453;50.294;18.644;2023-08-30T04:28:46;17.95;;;5.05;;
18647;SDS011;9453;50.294;18.644;2023-08-30T04:31:13;9.52;;;4.38;;
18647;SDS011;9453;50.294;18.644;2023-08-30T04:33:40;6.28;;;3.10;;
18647;SDS011;9453;50.294;18.644;2023-08-30T04:36:07;10.52;;;3.30;;
18647;SDS011;9453;50.294;18.644;2023-08-30T04:38:35;7.47;;;2.42;;
18647;SDS011;9453;50.294;18.644;2023-08-30T04:41:02;4.55;;;2.50;;
18647;SDS011;9453;50.294;18.644;2023-08-30T04:43:29;6.10;;;2.55;;
18647;SDS011;9453;50.294;18.644;2023-08-30T04:45:56;10.48;;;2.67;;
18647;SDS011;9453;50.294;18.644;2023-08-30T04:48:23;5.00;;;2.10;;
18647;SDS011;9453;50.294;18.644;2023-08-30T04:50:57;8.13;;;2.50;;
18647;SDS011;9453;50.294;18.644;2023-08-30T04:53:25;6.38;;;2.97;;
18647;SDS011;9453;50.294;18.644;2023-08-30T04:55:53;7.97;;;3.25;;
18647;SDS011;9453;50.294;18.644;2023-08-30T04:58:20;12.90;;;4.00;;
18647;SDS011;9453;50.294;18.644;2023-08-30T05:00:47;6.57;;;3.75;;
18647;SDS011;9453;50.294;18.644;2023-08-30T05:03:14;6.40;;;3.45;;
18647;SDS011;9453;50.294;18.644;2023-08-30T05:05:44;15.35;;;5.20;;
18647;SDS011;9453;50.294;18.644;2023-08-30T05:08:11;16.17;;;6.40;;
18647;SDS011;9453;50.294;18.644;2023-08-30T05:10:38;13.98;;;5.72;;
18647;SDS011;9453;50.294;18.644;2023-08-30T05:13:09;21.30;;;6.20;;
18647;SDS011;9453;50.294;18.644;2023-08-30T05:15:36;13.45;;;5.50;;
18647;SDS011;9453;50.294;18.644;2023-08-30T05:18:03;11.95;;;4.88;;
18647;SDS011;9453;50.294;18.644;2023-08-30T05:20:31;10.50;;;5.15;;
18647;SDS011;9453;50.294;18.644;2023-08-30T05:22:57;14.32;;;5.05;;
18647;SDS011;9453;50.294;18.644;2023-08-30T05:25:24;12.68;;;5.63;;
18647;SDS011;9453;50.294;18.644;2023-08-30T05:27:51;11.75;;;5.03;;
18647;SDS011;9453;50.294;18.644;2023-08-30T05:30:20;8.98;;;3.67;;
18647;SDS011;9453;50.294;18.644;2023-08-30T05:32:47;12.68;;;5.15;;
18647;SDS011;9453;50.294;18.644;2023-08-30T05:35:14;14.73;;;5.00;;
18647;SDS011;9453;50.294;18.644;2023-08-30T05:37:41;15.50;;;6.38;;
18647;SDS011;9453;50.294;18.644;2023-08-30T05:40:08;14.50;;;6.50;;
18647;SDS011;9453;50.294;18.644;2023-08-30T05:42:36;18.67;;;7.30;;
18647;SDS011;9453;50.294;18.644;2023-08-30T05:45:03;12.90;;;5.85;;
18647;SDS011;9453;50.294;18.644;2023-08-30T05:47:32;11.38;;;5.05;;
18647;SDS011;9453;50.294;18.644;2023-08-30T05:49:59;7.28;;;4.10;;
18647;SDS011;9453;50.294;18.644;2023-08-30T05:52:25;8.52;;;4.82;;
18647;SDS011;9453;50.294;18.644;2023-08-30T05:54:52;11.18;;;4.32;;
18647;SDS011;9453;50.294;18.644;2023-08-30T05:57:19;10.70;;;4.13;;
18647;SDS011;9453;50.294;18.644;2023-08-30T05:59:48;12.68;;;4.60;;
18647;SDS011;9453;50.294;18.644;2023-08-30T06:02:15;7.38;;;4.18;;
18647;SDS011;9453;50.294;18.644;2023-08-30T06:04:44;9.95;;;4.80;;
18647;SDS011;9453;50.294;18.644;2023-08-30T06:07:11;5.40;;;3.33;;
18647;SDS011;9453;50.294;18.644;2023-08-30T06:09:37;7.22;;;3.95;;
18647;SDS011;9453;50.294;18.644;2023-08-30T06:12:05;8.05;;;3.72;;
18647;SDS011;9453;50.294;18.644;2023-08-30T06:14:32;5.28;;;3.08;;
18647;SDS011;9453;50.294;18.644;2023-08-30T06:16:59;8.70;;;3.70;;
18647;SDS011;9453;50.294;18.644;2023-08-30T06:19:27;5.45;;;2.75;;
18647;SDS011;9453;50.294;18.644;2023-08-30T06:21:55;6.90;;;3.58;;
18647;SDS011;9453;50.294;18.644;2023-08-30T06:24:22;6.72;;;3.20;;
18647;SDS011;9453;50.294;18.644;2023-08-30T06:26:49;5.40;;;2.70;;
18647;SDS011;9453;50.294;18.644;2023-08-30T06:29:16;9.82;;;5.25;;
18647;SDS011;9453;50.294;18.644;2023-08-30T06:31:43;11.30;;;5.03;;
18647;SDS011;9453;50.294;18.644;2023-08-30T06:34:11;7.10;;;4.28;;
18647;SDS011;9453;50.294;18.644;2023-08-30T06:36:38;6.47;;;3.30;;
18647;SDS011;9453;50.294;18.644;2023-08-30T06:39:06;7.75;;;4.38;;
18647;SDS011;9453;50.294;18.644;2023-08-30T06:41:33;8.38;;;4.47;;
18647;SDS011;9453;50.294;18.644;2023-08-30T06:44:00;5.90;;;3.15;;
18647;SDS011;9453;50.294;18.644;2023-08-30T06:46:27;12.98;;;4.65;;
18647;SDS011;9453;50.294;18.644;2023-08-30T06:48:54;14.57;;;5.22;;
18647;SDS011;9453;50.294;18.644;2023-08-30T06:51:20;8.57;;;3.97;;
18647;SDS011;9453;50.294;18.644;2023-08-30T06:53:47;8.80;;;4.18;;
18647;SDS011;9453;50.294;18.644;2023-08-30T06:56:16;7.18;;;3.25;;
18647;SDS011;9453;50.294;18.644;2023-08-30T06:58:43;6.53;;;3.60;;
18647;SDS011;9453;50.294;18.644;2023-08-30T07:01:10;6.53;;;3.90;;
18647;SDS011;9453;50.294;18.644;2023-08-30T07:03:37;6.78;;;2.90;;
18647;SDS011;9453;50.294;18.644;2023-08-30T07:06:05;5.97;;;2.63;;
18647;SDS011;9453;50.294;18.644;2023-08-30T07:08:32;6.35;;;2.80;;
18647;SDS011;9453;50.294;18.644;2023-08-30T07:10:59;3.72;;;2.33;;
18647;SDS011;9453;50.294;18.644;2023-08-30T07:13:27;5.60;;;2.95;;
18647;SDS011;9453;50.294;18.644;2023-08-30T07:15:54;6.22;;;2.88;;
18647;SDS011;9453;50.294;18.644;2023-08-30T07:18:21;4.28;;;2.45;;
18647;SDS011;9453;50.294;18.644;2023-08-30T07:20:48;5.05;;;2.90;;
18647;SDS011;9453;50.294;18.644;2023-08-30T07:23:14;5.88;;;2.58;;
18647;SDS011;9453;50.294;18.644;2023-08-30T07:25:41;4.70;;;1.90;;
18647;SDS011;9453;50.294;18.644;2023-08-30T07:28:10;4.05;;;2.00;;
18647;SDS011;9453;50.294;18.644;2023-08-30T07:30:38;2.45;;;1.50;;
18647;SDS011;9453;50.294;18.644;2023-08-30T07:33:05;2.35;;;1.48;;
18647;SDS011;9453;50.294;18.644;2023-08-30T07:35:32;1.90;;;1.42;;
18647;SDS011;9453;50.294;18.644;2023-08-30T07:37:59;1.70;;;1.05;;
18647;SDS011;9453;50.294;18.644;2023-08-30T07:40:26;2.38;;;1.30;;
18647;SDS011;9453;50.294;18.644;2023-08-30T07:42:54;1.80;;;1.50;;
18647;SDS011;9453;50.294;18.644;2023-08-30T07:45:21;2.15;;;1.48;;
18647;SDS011;9453;50.294;18.644;2023-08-30T07:47:49;2.63;;;1.58;;
18647;SDS011;9453;50.294;18.644;2023-08-30T07:50:16;1.70;;;1.30;;
18647;SDS011;9453;50.294;18.644;2023-08-30T07:52:44;2.60;;;1.42;;
18647;SDS011;9453;50.294;18.644;2023-08-30T07:55:12;2.83;;;1.38;;
18647;SDS011;9453;50.294;18.644;2023-08-30T07:57:39;3.45;;;1.50;;
18647;SDS011;9453;50.294;18.644;2023-08-30T08:00:07;4.05;;;2.60;;
18647;SDS011;9453;50.294;18.644;2023-08-30T08:02:34;3.75;;;2.55;;
18647;SDS011;9453;50.294;18.644;2023-08-30T08:05:03;1.95;;;1.52;;
18647;SDS011;9453;50.294;18.644;2023-08-30T08:07:30;4.82;;;1.48;;
18647;SDS011;9453;50.294;18.644;2023-08-30T08:09:57;1.90;;;1.30;;
18647;SDS011;9453;50.294;18.644;2023-08-30T08:12:25;3.00;;;2.00;;
18647;SDS011;9453;50.294;18.644;2023-08-30T08:14:52;2.42;;;1.55;;
18647;SDS011;9453;50.294;18.644;2023-08-30T08:17:19;1.98;;;1.20;;
18647;SDS011;9453;50.294;18.644;2023-08-30T08:19:46;1.25;;;0.73;;
18647;SDS011;9453;50.294;18.644;2023-08-30T08:22:15;1.30;;;0.93;;
18647;SDS011;9453;50.294;18.644;2023-08-30T08:24:42;1.50;;;0.95;;
18647;SDS011;9453;50.294;18.644;2023-08-30T08:27:11;0.95;;;0.75;;
18647;SDS011;9453;50.294;18.644;2023-08-30T08:29:38;1.98;;;1.27;;
18647;SDS011;9453;50.294;18.644;2023-08-30T08:32:05;1.35;;;1.10;;
18647;SDS011;9453;50.294;18.644;2023-08-30T08:34:31;1.75;;;1.13;;
18647;SDS011;9453;50.294;18.644;2023-08-30T08:36:58;2.88;;;1.50;;
18647;SDS011;9453;50.294;18.644;2023-08-30T08:39:27;1.98;;;1.50;;
18647;SDS011;9453;50.294;18.644;2023-08-30T08:41:54;1.15;;;1.05;;
18647;SDS011;9453;50.294;18.644;2023-08-30T08:44:21;1.60;;;1.30;;
18647;SDS011;9453;50.294;18.644;2023-08-30T08:46:52;1.52;;;1.33;;
18647;SDS011;9453;50.294;18.644;2023-08-30T08:49:19;1.48;;;1.15;;
18647;SDS011;9453;50.294;18.644;2023-08-30T08:51:46;1.73;;;1.08;;
18647;SDS011;9453;50.294;18.644;2023-08-30T08:54:13;1.08;;;0.88;;
18647;SDS011;9453;50.294;18.644;2023-08-30T08:56:43;2.10;;;1.17;;
18647;SDS011;9453;50.294;18.644;2023-08-30T08:59:11;1.10;;;1.00;;
18647;SDS011;9453;50.294;18.644;2023-08-30T09:01:38;1.92;;;1.40;;
18647;SDS011;9453;50.294;18.644;2023-08-30T09:04:06;2.28;;;1.30;;
18647;SDS011;9453;50.294;18.644;2023-08-30T09:06:33;1.25;;;1.15;;
18647;SDS011;9453;50.294;18.644;2023-08-30T09:09:00;3.80;;;1.52;;
18647;SDS011;9453;50.294;18.644;2023-08-30T09:11:28;3.50;;;1.30;;
18647;SDS011;9453;50.294;18.644;2023-08-30T09:13:56;1.75;;;1.55;;
18647;SDS011;9453;50.294;18.644;2023-08-30T09:16:23;3.28;;;1.27;;
18647;SDS011;9453;50.294;18.644;2023-08-30T09:18:56;2.25;;;0.98;;
18647;SDS011;9453;50.294;18.644;2023-08-30T09:21:24;2.05;;;0.80;;
18647;SDS011;9453;50.294;18.644;2023-08-30T09:23:58;1.23;;;0.70;;
18647;SDS011;9453;50.294;18.644;2023-08-30T09:26:26;0.65;;;0.60;;
18647;SDS011;9453;50.294;18.644;2023-08-30T09:28:54;1.10;;;0.45;;
18647;SDS011;9453;50.294;18.644;2023-08-30T09:31:32;0.73;;;0.50;;
18647;SDS011;9453;50.294;18.644;2023-08-30T09:33:59;0.70;;;0.60;;
18647;SDS011;9453;50.294;18.644;2023-08-30T09:36:32;0.80;;;0.80;;
18647;SDS011;9453;50.294;18.644;2023-08-30T09:39:02;0.75;;;0.57;;
18647;SDS011;9453;50.294;18.644;2023-08-30T09:41:30;2.38;;;0.60;;
18647;SDS011;9453;50.294;18.644;2023-08-30T09:44:00;1.88;;;0.63;;
18647;SDS011;9453;50.294;18.644;2023-08-30T09:46:32;0.93;;;0.50;;
18647;SDS011;9453;50.294;18.644;2023-08-30T09:49:05;1.15;;;0.63;;
18647;SDS011;9453;50.294;18.644;2023-08-30T09:51:32;0.75;;;0.55;;
18647;SDS011;9453;50.294;18.644;2023-08-30T09:54:02;0.88;;;0.60;;
18647;SDS011;9453;50.294;18.644;2023-08-30T09:56:31;0.50;;;0.50;;
18647;SDS011;9453;50.294;18.644;2023-08-30T09:59:02;0.88;;;0.60;;
18647;SDS011;9453;50.294;18.644;2023-08-30T10:01:31;0.70;;;0.68;;
18647;SDS011;9453;50.294;18.644;2023-08-30T10:03:58;0.85;;;0.82;;
18647;SDS011;9453;50.294;18.644;2023-08-30T10:06:26;1.58;;;0.90;;
18647;SDS011;9453;50.294;18.644;2023-08-30T10:08:54;1.38;;;0.90;;
18647;SDS011;9453;50.294;18.644;2023-08-30T10:11:23;1.20;;;0.80;;
18647;SDS011;9453;50.294;18.644;2023-08-30T10:13:50;0.75;;;0.63;;
18647;SDS011;9453;50.294;18.644;2023-08-30T10:16:19;1.15;;;0.70;;
18647;SDS011;9453;50.294;18.644;2023-08-30T10:18:52;1.63;;;1.10;;
18647;SDS011;9453;50.294;18.644;2023-08-30T10:21:20;1.27;;;1.08;;
18647;SDS011;9453;50.294;18.644;2023-08-30T10:23:48;1.73;;;1.13;;
18647;SDS011;9453;50.294;18.644;2023-08-30T10:26:16;1.10;;;1.00;;
18647;SDS011;9453;50.294;18.644;2023-08-30T10:28:45;3.42;;;1.05;;
18647;SDS011;9453;50.294;18.644;2023-08-30T10:31:13;2.38;;;1.40;;
18647;SDS011;9453;50.294;18.644;2023-08-30T10:33:48;1.73;;;1.20;;
18647;SDS011;9453;50.294;18.644;2023-08-30T10:36:20;2.78;;;1.30;;
18647;SDS011;9453;50.294;18.644;2023-08-30T10:38:48;1.98;;;1.45;;
18647;SDS011;9453;50.294;18.644;2023-08-30T10:41:19;1.88;;;1.50;;
18647;SDS011;9453;50.294;18.644;2023-08-30T10:43:49;2.28;;;1.50;;
18647;SDS011;9453;50.294;18.644;2023-08-30T10:46:17;4.38;;;1.90;;
18647;SDS011;9453;50.294;18.644;2023-08-30T10:48:56;1.85;;;1.40;;
18647;SDS011;9453;50.294;18.644;2023-08-30T10:51:35;1.70;;;1.30;;
18647;SDS011;9453;50.294;18.644;2023-08-30T10:54:09;1.30;;;1.10;;
18647;SDS011;9453;50.294;18.644;2023-08-30T10:56:45;1.52;;;1.25;;
18647;SDS011;9453;50.294;18.644;2023-08-30T10:59:15;2.42;;;1.20;;
18647;SDS011;9453;50.294;18.644;2023-08-30T11:01:43;1.40;;;1.20;;
18647;SDS011;9453;50.294;18.644;2023-08-30T11:04:13;1.70;;;1.60;;
18647;SDS011;9453;50.294;18.644;2023-08-30T11:06:42;3.78;;;1.55;;
18647;SDS011;9453;50.294;18.644;2023-08-30T11:09:12;3.50;;;1.98;;
18647;SDS011;9453;50.294;18.644;2023-08-30T11:11:43;2.10;;;1.88;;
18647;SDS011;9453;50.294;18.644;2023-08-30T11:14:10;3.30;;;1.90;;
18647;SDS011;9453;50.294;18.644;2023-08-30T11:16:37;5.80;;;1.98;;
18647;SDS011;9453;50.294;18.644;2023-08-30T11:19:05;2.80;;;1.70;;
18647;SDS011;9453;50.294;18.644;2023-08-30T11:21:36;2.28;;;1.80;;
18647;SDS011;9453;50.294;18.644;2023-08-30T11:24:04;5.88;;;2.28;;
18647;SDS011;9453;50.294;18.644;2023-08-30T11:26:32;2.22;;;1.85;;
18647;SDS011;9453;50.294;18.644;2023-08-30T11:29:03;3.22;;;2.30;;
18647;SDS011;9453;50.294;18.644;2023-08-30T11:31:30;2.97;;;2.45;;
18647;SDS011;9453;50.294;18.644;2023-08-30T11:33:58;3.15;;;2.70;;
18647;SDS011;9453;50.294;18.644;2023-08-30T11:36:26;3.53;;;2.53;;
18647;SDS011;9453;50.294;18.644;2023-08-30T11:38:55;4.07;;;2.80;;
18647;SDS011;9453;50.294;18.644;2023-08-30T11:41:23;3.13;;;2.58;;
18647;SDS011;9453;50.294;18.644;2023-08-30T11:43:51;4.35;;;3.28;;
18647;SDS011;9453;50.294;18.644;2023-08-30T11:46:18;5.15;;;3.88;;
18647;SDS011;9453;50.294;18.644;2023-08-30T11:48:47;6.90;;;4.40;;
18647;SDS011;9453;50.294;18.644;2023-08-30T11:51:14;4.75;;;3.78;;
18647;SDS011;9453;50.294;18.644;2023-08-30T11:53:42;6.97;;;4.72;;
18647;SDS011;9453;50.294;18.644;2023-08-30T11:56:11;6.05;;;4.60;;
18647;SDS011;9453;50.294;18.644;2023-08-30T11:58:38;8.05;;;5.47;;
18647;SDS011;9453;50.294;18.644;2023-08-30T12:01:06;8.18;;;6.15;;
18647;SDS011;9453;50.294;18.644;2023-08-30T12:03:34;5.70;;;4.57;;
18647;SDS011;9453;50.294;18.644;2023-08-30T12:06:01;7.45;;;5.70;;
18647;SDS011;9453;50.294;18.644;2023-08-30T12:08:29;7.57;;;5.85;;
18647;SDS011;9453;50.294;18.644;2023-08-30T12:10:57;7.72;;;4.68;;
18647;SDS011;9453;50.294;18.644;2023-08-30T12:13:26;6.47;;;4.45;;
18647;SDS011;9453;50.294;18.644;2023-08-30T12:15:54;4.97;;;3.97;;
18647;SDS011;9453;50.294;18.644;2023-08-30T12:18:22;5.82;;;4.32;;
18647;SDS011;9453;50.294;18.644;2023-08-30T12:20:53;4.60;;;3.35;;
18647;SDS011;9453;50.294;18.644;2023-08-30T12:23:21;5.15;;;4.05;;
18647;SDS011;9453;50.294;18.644;2023-08-30T12:25:58;6.05;;;4.13;;
18647;SDS011;9453;50.294;18.644;2023-08-30T12:28:28;4.85;;;4.32;;
18647;SDS011;9453;50.294;18.644;2023-08-30T12:30:55;7.90;;;4.32;;
18647;SDS011;9453;50.294;18.644;2023-08-30T12:33:22;7.70;;;4.32;;
18647;SDS011;9453;50.294;18.644;2023-08-30T12:35:50;6.25;;;4.35;;
18647;SDS011;9453;50.294;18.644;2023-08-30T12:38:17;6.20;;;4.35;;
18647;SDS011;9453;50.294;18.644;2023-08-30T12:40:44;7.45;;;5.47;;
18647;SDS011;9453;50.294;18.644;2023-08-30T12:43:12;8.50;;;5.20;;
18647;SDS011;9453;50.294;18.644;2023-08-30T12:45:41;8.40;;;5.55;;
18647;SDS011;9453;50.294;18.644;2023-08-30T12:48:08;7.40;;;5.32;;
18647;SDS011;9453;50.294;18.644;2023-08-30T12:50:36;6.93;;;5.43;;
18647;SDS011;9453;50.294;18.644;2023-08-30T12:53:04;7.30;;;5.05;;
18647;SDS011;9453;50.294;18.644;2023-08-30T12:55:32;6.80;;;4.85;;
18647;SDS011;9453;50.294;18.644;2023-08-30T12:58:00;7.13;;;5.65;;
18647;SDS011;9453;50.294;18.644;2023-08-30T13:00:27;8.57;;;5.07;;
18647;SDS011;9453;50.294;18.644;2023-08-30T13:02:56;5.15;;;4.20;;
18647;SDS011;9453;50.294;18.644;2023-08-30T13:05:23;7.50;;;4.47;;
18647;SDS011;9453;50.294;18.644;2023-08-30T13:07:50;9.63;;;4.50;;
18647;SDS011;9453;50.294;18.644;2023-08-30T13:10:17;6.43;;;4.38;;
18647;SDS011;9453;50.294;18.644;2023-08-30T13:12:44;4.22;;;3.22;;
18647;SDS011;9453;50.294;18.644;2023-08-30T13:15:11;5.80;;;3.58;;
18647;SDS011;9453;50.294;18.644;2023-08-30T13:17:38;3.65;;;2.60;;
18647;SDS011;9453;50.294;18.644;2023-08-30T13:20:07;5.07;;;3.55;;
18647;SDS011;9453;50.294;18.644;2023-08-30T13:22:35;4.95;;;2.85;;
18647;SDS011;9453;50.294;18.644;2023-08-30T13:25:03;7.78;;;3.83;;
18647;SDS011;9453;50.294;18.644;2023-08-30T13:27:30;4.90;;;3.78;;
18647;SDS011;9453;50.294;18.644;2023-08-30T13:29:57;6.75;;;4.30;;
18647;SDS011;9453;50.294;18.644;2023-08-30T13:32:24;5.35;;;4.43;;
18647;SDS011;9453;50.294;18.644;2023-08-30T13:34:52;8.18;;;4.30;;
18647;SDS011;9453;50.294;18.644;2023-08-30T13:37:20;9.07;;;4.57;;
18647;SDS011;9453;50.294;18.644;2023-08-30T13:39:48;5.15;;;3.97;;
18647;SDS011;9453;50.294;18.644;2023-08-30T13:42:15;6.22;;;4.55;;
18647;SDS011;9453;50.294;18.644;2023-08-30T13:44:42;4.38;;;3.65;;
18647;SDS011;9453;50.294;18.644;2023-08-30T13:47:10;6.43;;;4.35;;
18647;SDS011;9453;50.294;18.644;2023-08-30T13:49:37;6.03;;;3.78;;
18647;SDS011;9453;50.294;18.644;2023-08-30T13:52:04;7.03;;;3.03;;
18647;SDS011;9453;50.294;18.644;2023-08-30T13:54:34;5.80;;;3.65;;
18647;SDS011;9453;50.294;18.644;2023-08-30T13:57:00;6.55;;;4.05;;
18647;SDS011;9453;50.294;18.644;2023-08-30T13:59:28;5.47;;;4.10;;
18647;SDS011;9453;50.294;18.644;2023-08-30T14:01:55;5.47;;;3.22;;
18647;SDS011;9453;50.294;18.644;2023-08-30T14:04:23;5.15;;;3.15;;
18647;SDS011;9453;50.294;18.644;2023-08-30T14:06:50;3.72;;;2.97;;
18647;SDS011;9453;50.294;18.644;2023-08-30T14:09:18;5.32;;;3.55;;
18647;SDS011;9453;50.294;18.644;2023-08-30T14:11:46;4.80;;;3.35;;
18647;SDS011;9453;50.294;18.644;2023-08-30T14:14:13;4.10;;;3.10;;
18647;SDS011;9453;50.294;18.644;2023-08-30T14:16:40;4.47;;;3.28;;
18647;SDS011;9453;50.294;18.644;2023-08-30T14:19:07;2.78;;;2.45;;
18647;SDS011;9453;50.294;18.644;2023-08-30T14:21:34;4.75;;;3.60;;
18647;SDS011;9453;50.294;18.644;2023-08-30T14:24:01;4.57;;;3.40;;
18647;SDS011;9453;50.294;18.644;2023-08-30T14:26:29;8.68;;;3.22;;
18647;SDS011;9453;50.294;18.644;2023-08-30T14:28:57;5.20;;;3.58;;
18647;SDS011;9453;50.294;18.644;2023-08-30T14:31:24;4.28;;;3.28;;
18647;SDS011;9453;50.294;18.644;2023-08-30T14:33:54;5.65;;;3.20;;
18647;SDS011;9453;50.294;18.644;2023-08-30T14:36:22;4.85;;;2.78;;
18647;SDS011;9453;50.294;18.644;2023-08-30T14:38:49;3.92;;;3.05;;
18647;SDS011;9453;50.294;18.644;2023-08-30T14:41:16;4.07;;;2.88;;
18647;SDS011;9453;50.294;18.644;2023-08-30T14:43:43;4.82;;;3.20;;
18647;SDS011;9453;50.294;18.644;2023-08-30T14:46:11;4.57;;;2.85;;
18647;SDS011;9453;50.294;18.644;2023-08-30T14:48:40;7.00;;;2.95;;
18647;SDS011;9453;50.294;18.644;2023-08-30T14:51:07;5.15;;;3.47;;
18647;SDS011;9453;50.294;18.644;2023-08-30T14:53:34;4.88;;;3.03;;
18647;SDS011;9453;50.294;18.644;2023-08-30T14:56:02;5.68;;;3.35;;
18647;SDS011;9453;50.294;18.644;2023-08-30T14:58:31;6.07;;;3.45;;
18647;SDS011;9453;50.294;18.644;2023-08-30T15:00:59;6.10;;;3.38;;
18647;SDS011;9453;50.294;18.644;2023-08-30T15:03:27;4.47;;;3.28;;
18647;SDS011;9453;50.294;18.644;2023-08-30T15:05:55;4.43;;;3.08;;
18647;SDS011;9453;50.294;18.644;2023-08-30T15:08:23;4.10;;;2.83;;
18647;SDS011;9453;50.294;18.644;2023-08-30T15:10:50;7.97;;;3.22;;
18647;SDS011;9453;50.294;18.644;2023-08-30T15:13:17;5.15;;;3.00;;
18647;SDS011;9453;50.294;18.644;2023-08-30T15:15:44;6.18;;;3.03;;
18647;SDS011;9453;50.294;18.644;2023-08-30T15:18:11;5.95;;;3.10;;
18647;SDS011;9453;50.294;18.644;2023-08-30T15:20:39;3.08;;;2.20;;
18647;SDS011;9453;50.294;18.644;2023-08-30T15:23:06;4.93;;;2.92;;
18647;SDS011;9453;50.294;18.644;2023-08-30T15:25:35;3.70;;;2.42;;
18647;SDS011;9453;50.294;18.644;2023-08-30T15:28:05;5.07;;;2.65;;
18647;SDS011;9453;50.294;18.644;2023-08-30T15:30:32;4.38;;;2.83;;
18647;SDS011;9453;50.294;18.644;2023-08-30T15:32:59;4.72;;;2.75;;
18647;SDS011;9453;50.294;18.644;2023-08-30T15:35:26;5.20;;;2.90;;
18647;SDS011;9453;50.294;18.644;2023-08-30T15:37:54;3.90;;;2.58;;
18647;SDS011;9453;50.294;18.644;2023-08-30T15:40:21;4.95;;;2.85;;
18647;SDS011;9453;50.294;18.644;2023-08-30T15:42:48;3.03;;;2.53;;
18647;SDS011;9453;50.294;18.644;2023-08-30T15:45:15;4.68;;;2.50;;
18647;SDS011;9453;50.294;18.644;2023-08-30T15:47:42;4.88;;;2.85;;
18647;SDS011;9453;50.294;18.644;2023-08-30T15:50:09;4.18;;;2.80;;
18647;SDS011;9453;50.294;18.644;2023-08-30T15:52:36;5.45;;;2.70;;
18647;SDS011;9453;50.294;18.644;2023-08-30T15:55:05;5.30;;;2.90;;
18647;SDS011;9453;50.294;18.644;2023-08-30T15:57:33;5.15;;;2.88;;
18647;SDS011;9453;50.294;18.644;2023-08-30T16:00:00;5.53;;;3.22;;
18647;SDS011;9453;50.294;18.644;2023-08-30T16:02:28;6.15;;;2.60;;
18647;SDS011;9453;50.294;18.644;2023-08-30T16:04:55;5.50;;;2.80;;
18647;SDS011;9453;50.294;18.644;2023-08-30T16:07:22;3.70;;;2.50;;
18647;SDS011;9453;50.294;18.644;2023-08-30T16:09:48;3.70;;;2.65;;
18647;SDS011;9453;50.294;18.644;2023-08-30T16:12:18;3.15;;;2.05;;
18647;SDS011;9453;50.294;18.644;2023-08-30T16:14:45;7.35;;;2.75;;
18647;SDS011;9453;50.294;18.644;2023-08-30T16:17:12;4.20;;;2.60;;
18647;SDS011;9453;50.294;18.644;2023-08-30T16:19:39;2.72;;;2.10;;
18647;SDS011;9453;50.294;18.644;2023-08-30T16:22:06;3.30;;;2.47;;
18647;SDS011;9453;50.294;18.644;2023-08-30T16:24:34;3.72;;;2.45;;
18647;SDS011;9453;50.294;18.644;2023-08-30T16:27:01;4.82;;;1.80;;
18647;SDS011;9453;50.294;18.644;2023-08-30T16:29:29;3.40;;;2.38;;
18647;SDS011;9453;50.294;18.644;2023-08-30T16:31:57;2.78;;;1.83;;
18647;SDS011;9453;50.294;18.644;2023-08-30T16:34:24;2.92;;;1.77;;
18647;SDS011;9453;50.294;18.644;2023-08-30T16:36:51;1.90;;;1.63;;
18647;SDS011;9453;50.294;18.644;2023-08-30T16:39:18;4.63;;;2.10;;
18647;SDS011;9453;50.294;18.644;2023-08-30T16:41:45;2.17;;;1.90;;
18647;SDS011;9453;50.294;18.644;2023-08-30T16:44:13;3.10;;;1.67;;
18647;SDS011;9453;50.294;18.644;2023-08-30T16:46:41;2.13;;;1.70;;
18647;SDS011;9453;50.294;18.644;2023-08-30T16:49:08;4.85;;;1.55;;
18647;SDS011;9453;50.294;18.644;2023-08-30T16:51:36;2.15;;;1.40;;
18647;SDS011;9453;50.294;18.644;2023-08-30T16:54:03;2.03;;;1.75;;
18647;SDS011;9453;50.294;18.644;2023-08-30T16:56:31;2.15;;;1.40;;
18647;SDS011;9453;50.294;18.644;2023-08-30T16:58:57;3.15;;;1.80;;
18647;SDS011;9453;50.294;18.644;2023-08-30T17:01:24;2.28;;;1.50;;
18647;SDS011;9453;50.294;18.644;2023-08-30T17:03:53;2.55;;;1.48;;
18647;SDS011;9453;50.294;18.644;2023-08-30T17:06:19;4.18;;;1.75;;
18647;SDS011;9453;50.294;18.644;2023-08-30T17:08:47;1.15;;;1.00;;
18647;SDS011;9453;50.294;18.644;2023-08-30T17:11:14;1.27;;;1.15;;
18647;SDS011;9453;50.294;18.644;2023-08-30T17:13:42;3.55;;;1.23;;
18647;SDS011;9453;50.294;18.644;2023-08-30T17:16:09;1.98;;;1.30;;
18647;SDS011;9453;50.294;18.644;2023-08-30T17:18:37;2.60;;;1.60;;
18647;SDS011;9453;50.294;18.644;2023-08-30T17:21:06;2.17;;;1.30;;
18647;SDS011;9453;50.294;18.644;2023-08-30T17:23:35;4.38;;;2.33;;
18647;SDS011;9453;50.294;18.644;2023-08-30T17:26:02;1.50;;;1.30;;
18647;SDS011;9453;50.294;18.644;2023-08-30T17:28:29;1.83;;;1.50;;
18647;SDS011;9453;50.294;18.644;2023-08-30T17:30:56;1.80;;;1.30;;
18647;SDS011;9453;50.294;18.644;2023-08-30T17:33:24;2.42;;;1.20;;
18647;SDS011;9453;50.294;18.644;2023-08-30T17:35:52;1.55;;;1.10;;
18647;SDS011;9453;50.294;18.644;2023-08-30T17:38:21;1.33;;;1.17;;
18647;SDS011;9453;50.294;18.644;2023-08-30T17:40:48;2.92;;;1.60;;
18647;SDS011;9453;50.294;18.644;2023-08-30T17:43:15;3.17;;;1.30;;
18647;SDS011;9453;50.294;18.644;2023-08-30T17:45:42;2.10;;;1.30;;
18647;SDS011;9453;50.294;18.644;2023-08-30T17:48:10;1.95;;;1.75;;
18647;SDS011;9453;50.294;18.644;2023-08-30T17:50:40;1.75;;;1.42;;
18647;SDS011;9453;50.294;18.644;2023-08-30T17:53:08;2.17;;;1.48;;
18647;SDS011;9453;50.294;18.644;2023-08-30T17:55:36;2.30;;;1.60;;
18647;SDS011;9453;50.294;18.644;2023-08-30T17:58:03;2.10;;;1.35;;
18647;SDS011;9453;50.294;18.644;2023-08-30T18:00:31;1.55;;;1.25;;
18647;SDS011;9453;50.294;18.644;2023-08-30T18:02:58;1.95;;;1.77;;
18647;SDS011;9453;50.294;18.644;2023-08-30T18:05:27;1.65;;;1.48;;
18647;SDS011;9453;50.294;18.644;2023-08-30T18:07:54;4.07;;;1.67;;
18647;SDS011;9453;50.294;18.644;2023-08-30T18:10:22;1.80;;;1.55;;
18647;SDS011;9453;50.294;18.644;2023-08-30T18:12:51;1.77;;;1.40;;
18647;SDS011;9453;50.294;18.644;2023-08-30T18:15:18;1.83;;;1.52;;
18647;SDS011;9453;50.294;18.644;2023-08-30T18:17:45;2.83;;;1.73;;
18647;SDS011;9453;50.294;18.644;2023-08-30T18:20:12;4.07;;;2.72;;
18647;SDS011;9453;50.294;18.644;2023-08-30T18:22:39;3.83;;;2.28;;
18647;SDS011;9453;50.294;18.644;2023-08-30T18:25:08;2.72;;;2.20;;
18647;SDS011;9453;50.294;18.644;2023-08-30T18:27:35;4.47;;;2.80;;
18647;SDS011;9453;50.294;18.644;2023-08-30T18:30:04;3.15;;;2.33;;
18647;SDS011;9453;50.294;18.644;2023-08-30T18:32:33;3.90;;;2.58;;
18647;SDS011;9453;50.294;18.644;2023-08-30T18:35:01;3.55;;;2.40;;
18647;SDS011;9453;50.294;18.644;2023-08-30T18:37:29;9.73;;;3.08;;
18647;SDS011;9453;50.294;18.644;2023-08-30T18:39:57;3.88;;;2.30;;
18647;SDS011;9453;50.294;18.644;2023-08-30T18:42:24;4.05;;;2.42;;
18647;SDS011;9453;50.294;18.644;2023-08-30T18:44:52;4.40;;;2.33;;
18647;SDS011;9453;50.294;18.644;2023-08-30T18:47:20;2.53;;;1.80;;
18647;SDS011;9453;50.294;18.644;2023-08-30T18:49:47;2.97;;;2.17;;
18647;SDS011;9453;50.294;18.644;2023-08-30T18:52:14;1.60;;;1.40;;